Time;durP1;ratioP1;P1;durP2;ratioP2;P2;SDS_P1;SDS_P2;PMS_P1;PMS_P2;Temp;Humidity;BMP_temperature;BMP_pressure;BME280_temperature;BME280_humidity;BME280_pressure;Samples;Min_cycle;Max_cycle;Signal;HPM_P1;HPM_P2
2021/12/12 00:00:11;;;;;;;6.40;5.70;;;3.00;99.90;;;;;;5076413;28;20306;-81
2021/12/12 00:02:56;;;;;;;6.72;5.93;;;2.90;99.90;;;;;;5076599;28;20201;-82
2021/12/12 00:05:27;;;;;;;6.32;5.20;;;2.80;99.90;;;;;;5077453;28;20301;-81
2021/12/12 00:07:54;;;;;;;6.63;5.30;;;;;;;;;;5080827;28;20223;-81
2021/12/12 00:10:25;;;;;;;7.78;6.45;;;3.00;99.90;;;;;;5078287;28;20237;-82
2021/12/12 00:12:58;;;;;;;5.32;4.70;;;2.80;99.90;;;;;;5076283;28;20245;-81
2021/12/12 00:15:25;;;;;;;6.00;5.07;;;;;;;;;;5081969;28;20295;-81
2021/12/12 00:17:53;;;;;;;7.50;5.90;;;;;;;;;;5076759;28;20213;-82
2021/12/12 00:20:23;;;;;;;7.00;5.85;;;3.00;99.90;;;;;;5078210;28;20744;-82
2021/12/12 00:22:52;;;;;;;6.18;4.88;;;;;;;;;;5070423;28;20236;-82
2021/12/12 00:25:20;;;;;;;6.78;5.90;;;;;;;;;;5075057;28;20300;-82
2021/12/12 00:27:47;;;;;;;6.57;5.45;;;;;;;;;;5079131;28;20293;-82
2021/12/12 00:30:16;;;;;;;6.88;5.70;;;;;;;;;;5078865;28;20234;-82
2021/12/12 00:32:43;;;;;;;7.00;4.95;;;;;;;;;;5077600;28;20237;-82
2021/12/12 00:35:14;;;;;;;6.18;5.47;;;3.00;99.90;;;;;;5076446;28;20285;-82
2021/12/12 00:37:42;;;;;;;6.07;5.43;;;;;;;;;;5078393;28;20217;-82
2021/12/12 00:40:17;;;;;;;7.35;5.38;;;3.40;99.90;;;;;;5080123;28;20317;-81
2021/12/12 00:42:44;;;;;;;5.50;4.30;;;3.00;99.90;;;;;;5076116;28;20572;-82
2021/12/12 00:45:14;;;;;;;6.68;4.85;;;2.90;99.90;;;;;;5078782;28;20233;-81
2021/12/12 00:47:44;;;;;;;6.68;5.47;;;2.80;99.90;;;;;;5077537;28;20751;-81
2021/12/12 00:50:16;;;;;;;6.72;6.00;;;2.60;99.90;;;;;;5081416;28;20230;-81
2021/12/12 00:52:45;;;;;;;7.75;5.63;;;2.80;99.90;;;;;;5076556;28;20233;-82
2021/12/12 00:55:13;;;;;;;5.68;5.10;;;2.80;99.90;;;;;;5077485;28;20238;-81
2021/12/12 00:57:40;;;;;;;7.13;5.65;;;2.60;99.90;;;;;;5080632;28;20368;-82
2021/12/12 01:00:09;;;;;;;6.18;5.43;;;2.90;99.90;;;;;;5073077;28;20217;-82
2021/12/12 01:02:36;;;;;;;5.80;5.30;;;2.80;99.90;;;;;;5080134;28;20284;-82
2021/12/12 01:05:07;;;;;;;6.15;4.90;;;2.90;99.90;;;;;;5084550;28;20209;-83
2021/12/12 01:07:39;;;;;;;7.68;5.75;;;2.90;99.90;;;;;;5077914;28;20268;-83
2021/12/12 01:10:10;;;;;;;6.35;5.28;;;2.90;99.90;;;;;;5084422;28;20209;-83
2021/12/12 01:12:38;;;;;;;7.28;4.80;;;2.70;99.90;;;;;;5082480;28;20302;-83
2021/12/12 01:15:10;;;;;;;7.15;5.40;;;2.90;99.90;;;;;;5080904;28;20623;-83
2021/12/12 01:17:41;;;;;;;7.95;4.32;;;2.90;99.90;;;;;;5075928;28;20229;-83
2021/12/12 01:20:12;;;;;;;6.50;5.32;;;;;;;;;;5084284;28;20234;-83
2021/12/12 01:22:42;;;;;;;7.45;6.00;;;2.90;99.90;;;;;;5079047;28;20817;-83
2021/12/12 01:25:13;;;;;;;6.30;5.50;;;2.90;99.90;;;;;;5084642;28;20206;-84
2021/12/12 01:27:41;;;;;;;6.22;5.63;;;;;;;;;;5069848;28;20673;-83
2021/12/12 01:30:10;;;;;;;8.18;6.55;;;3.40;99.90;;;;;;5083735;28;20643;-83
2021/12/12 01:32:37;;;;;;;6.75;5.60;;;;;;;;;;5081222;28;20258;-83
2021/12/12 01:35:13;;;;;;;8.02;7.22;;;2.90;99.90;;;;;;5083859;28;20292;-82
2021/12/12 01:37:51;;;;;;;7.60;6.72;;;2.90;99.90;;;;;;5080151;28;20207;-82
2021/12/12 01:40:23;;;;;;;8.52;6.93;;;2.80;99.90;;;;;;5077355;28;20736;-83
2021/12/12 01:42:55;;;;;;;6.63;5.68;;;2.70;99.90;;;;;;5081772;28;20274;-83
2021/12/12 01:45:26;;;;;;;8.55;7.50;;;2.90;99.90;;;;;;5081229;28;20766;-83
2021/12/12 01:47:59;;;;;;;8.02;6.07;;;2.90;99.90;;;;;;5085991;28;20290;-83
2021/12/12 01:50:30;;;;;;;7.32;6.40;;;2.90;99.90;;;;;;5078155;28;20718;-83
2021/12/12 01:53:01;;;;;;;7.32;6.35;;;2.40;99.90;;;;;;5079124;28;20742;-83
2021/12/12 01:55:31;;;;;;;7.93;6.50;;;2.60;99.90;;;;;;5078688;28;20720;-84
2021/12/12 01:58:01;;;;;;;8.02;6.20;;;2.90;99.90;;;;;;5081554;28;20294;-83
2021/12/12 02:00:33;;;;;;;7.38;5.45;;;2.90;99.90;;;;;;5084054;28;20248;-83
2021/12/12 02:03:01;;;;;;;10.43;5.97;;;3.00;99.90;;;;;;5081071;28;20209;-82
2021/12/12 02:05:29;;;;;;;13.27;6.03;;;2.80;99.90;;;;;;5082775;28;20670;-83
2021/12/12 02:08:01;;;;;;;11.32;6.93;;;3.00;99.90;;;;;;5079000;28;20233;-83
2021/12/12 02:10:31;;;;;;;8.23;6.20;;;3.00;99.90;;;;;;5076726;28;20588;-83
2021/12/12 02:13:02;;;;;;;8.70;6.32;;;3.00;99.90;;;;;;5075971;28;20225;-83
2021/12/12 02:15:31;;;;;;;7.65;5.90;;;;;;;;;;5075955;28;20264;-83
2021/12/12 02:18:00;;;;;;;6.88;5.22;;;;;;;;;;5078439;28;20268;-82
2021/12/12 02:20:35;;;;;;;5.80;5.18;;;2.90;99.90;;;;;;5083071;28;20698;-83
2021/12/12 02:23:15;;;;;;;6.60;5.63;;;2.90;99.90;;;;;;5078792;28;20208;-82
2021/12/12 02:37:02;;;;;;;6.68;4.50;;;2.90;99.90;;;;;;5079519;28;20742;-82
2021/12/12 02:39:32;;;;;;;5.25;4.28;;;2.90;99.90;;;;;;5081877;28;20659;-83
2021/12/12 02:42:01;;;;;;;4.88;4.40;;;2.80;99.90;;;;;;5068958;28;20209;-83
2021/12/12 02:44:32;;;;;;;4.35;3.92;;;2.80;99.90;;;;;;5071109;28;20196;-82
2021/12/12 02:47:08;;;;;;;6.30;4.75;;;2.80;99.90;;;;;;5080426;28;20290;-82
2021/12/12 02:49:38;;;;;;;5.88;3.78;;;;;;;;;;5076057;28;20198;-83
2021/12/12 02:52:08;;;;;;;6.28;4.55;;;2.80;99.90;;;;;;5080065;28;20232;-82
2021/12/12 02:54:37;;;;;;;7.57;4.70;;;;;;;;;;5080092;28;20685;-83
2021/12/12 02:57:05;;;;;;;5.60;4.20;;;2.80;99.90;;;;;;5078900;28;20301;-82
2021/12/12 02:59:34;;;;;;;8.80;4.80;;;2.90;99.90;;;;;;5081017;28;20206;-83
2021/12/12 03:02:04;;;;;;;5.72;5.10;;;3.00;99.90;;;;;;5080548;28;20267;-83
2021/12/12 03:04:32;;;;;;;5.28;3.67;;;2.90;99.90;;;;;;5081399;28;20253;-82
2021/12/12 03:07:00;;;;;;;7.93;3.78;;;3.00;99.90;;;;;;5077567;28;20209;-83
2021/12/12 03:09:36;;;;;;;3.80;3.50;;;2.90;99.90;;;;;;5078424;28;20230;-83
2021/12/12 03:12:09;;;;;;;4.05;3.45;;;2.70;99.90;;;;;;5078892;28;20213;-83
2021/12/12 03:14:38;;;;;;;5.50;3.85;;;2.70;99.90;;;;;;5080325;28;20615;-82
2021/12/12 03:17:08;;;;;;;5.70;4.30;;;2.60;99.90;;;;;;5079382;28;20205;-83
2021/12/12 03:19:36;;;;;;;4.10;3.58;;;2.50;99.90;;;;;;5084112;28;20240;-84
2021/12/12 03:22:07;;;;;;;6.53;3.58;;;2.40;99.90;;;;;;5079148;28;20291;-83
2021/12/12 03:24:34;;;;;;;4.30;3.90;;;;;;;;;;5080737;28;20279;-83
2021/12/12 03:27:05;;;;;;;3.75;3.28;;;2.30;99.90;;;;;;5078771;28;20248;-83
2021/12/12 03:29:33;;;;;;;4.50;3.55;;;;;;;;;;5081953;28;20200;-83
2021/12/12 03:32:03;;;;;;;4.90;4.03;;;2.20;99.90;;;;;;5079250;28;20209;-83
2021/12/12 03:34:33;;;;;;;5.43;4.75;;;;;;;;;;5079467;28;20229;-82
2021/12/12 03:37:00;;;;;;;7.25;3.58;;;;;;;;;;5080094;28;20200;-82
2021/12/12 03:39:31;;;;;;;4.13;3.50;;;2.00;99.90;;;;;;5075657;28;20283;-82
2021/12/12 03:42:02;;;;;;;5.75;4.95;;;1.70;99.90;;;;;;5078470;28;20318;-83
2021/12/12 03:44:33;;;;;;;4.53;3.55;;;1.90;99.90;;;;;;5075180;28;20208;-84
2021/12/12 03:47:06;;;;;;;5.65;4.50;;;1.80;99.90;;;;;;5078925;28;20239;-82
2021/12/12 03:49:34;;;;;;;5.72;4.25;;;;;;;;;;5083165;28;20275;-83
2021/12/12 03:52:01;;;;;;;4.80;4.25;;;;;;;;;;5076743;28;20259;-82
2021/12/12 03:54:28;;;;;;;6.43;4.30;;;;;;;;;;5081537;28;20282;-83
2021/12/12 03:56:55;;;;;;;7.15;4.00;;;;;;;;;;5075902;28;20306;-82
2021/12/12 03:59:24;;;;;;;7.00;3.70;;;1.80;99.90;;;;;;5083591;28;20190;-83
2021/12/12 04:01:54;;;;;;;4.60;3.70;;;1.90;99.90;;;;;;5076480;28;20307;-83
2021/12/12 04:04:24;;;;;;;6.40;3.70;;;1.90;99.90;;;;;;5077861;28;20209;-82
2021/12/12 04:06:53;;;;;;;10.70;4.00;;;1.80;99.90;;;;;;5080135;28;20706;-82
2021/12/12 04:09:21;;;;;;;6.60;4.65;;;4.20;99.90;;;;;;5082021;28;20288;-83
2021/12/12 04:11:51;;;;;;;3.80;3.40;;;1.60;99.90;;;;;;5077913;28;20201;-82
2021/12/12 04:14:19;;;;;;;8.50;3.65;;;1.80;99.90;;;;;;5080354;28;20730;-83
2021/12/12 04:17:00;;;;;;;6.00;3.78;;;4.10;99.90;;;;;;5079738;28;20237;-82
2021/12/12 04:19:29;;;;;;;6.68;4.18;;;;;;;;;;5080523;28;20587;-82
2021/12/12 04:21:56;;;;;;;5.53;4.32;;;1.20;99.90;;;;;;5076037;28;20247;-82
2021/12/12 04:24:27;;;;;;;4.45;3.63;;;1.60;99.90;;;;;;5082839;28;20224;-82
2021/12/12 04:26:54;;;;;;;7.95;4.88;;;1.40;99.90;;;;;;5076927;28;20899;-83
2021/12/12 04:29:28;;;;;;;8.57;5.05;;;1.40;99.90;;;;;;5079055;28;20743;-82
2021/12/12 04:31:58;;;;;;;4.25;3.90;;;2.50;99.90;;;;;;5077878;28;20219;-83
2021/12/12 04:34:26;;;;;;;6.10;4.15;;;1.50;99.90;;;;;;5082108;28;20205;-82
2021/12/12 04:36:56;;;;;;;7.25;4.78;;;1.40;99.90;;;;;;5077574;28;20294;-83
2021/12/12 04:39:26;;;;;;;6.50;4.25;;;1.10;99.90;;;;;;5085257;28;20230;-83
2021/12/12 04:41:58;;;;;;;4.93;4.43;;;1.10;99.90;;;;;;5080211;28;20335;-83
2021/12/12 04:44:29;;;;;;;4.80;4.30;;;1.10;99.90;;;;;;5083044;28;20231;-82
2021/12/12 04:49:58;;;;;;;6.90;5.78;;;1.10;99.90;;;;;;5086098;28;20963;-83
2021/12/12 04:52:33;;;;;;;4.85;3.80;;;1.00;99.90;;;;;;5081361;28;20207;-83
2021/12/12 04:55:06;;;;;;;11.15;4.40;;;1.00;99.90;;;;;;5082092;28;20306;-83
2021/12/12 04:57:39;;;;;;;4.90;4.40;;;1.00;99.90;;;;;;5078711;28;20306;-82
2021/12/12 05:00:10;;;;;;;9.77;4.45;;;1.00;99.90;;;;;;5086498;28;20287;-83
2021/12/12 05:02:44;;;;;;;7.35;4.05;;;0.90;99.90;;;;;;5083412;28;20282;-83
2021/12/12 05:05:16;;;;;;;7.88;5.63;;;0.90;99.90;;;;;;5081609;28;20291;-83
2021/12/12 05:07:49;;;;;;;8.00;5.95;;;1.00;99.90;;;;;;5080293;28;20257;-82
2021/12/12 05:10:22;;;;;;;6.72;5.07;;;0.90;99.90;;;;;;5082834;28;20779;-83
2021/12/12 05:12:55;;;;;;;5.32;4.57;;;0.90;99.90;;;;;;5079437;28;20280;-83
2021/12/12 05:15:29;;;;;;;6.78;4.60;;;0.90;99.90;;;;;;5083851;28;20230;-83
2021/12/12 05:17:59;;;;;;;7.20;5.35;;;0.90;99.90;;;;;;5083180;28;20226;-82
2021/12/12 05:20:30;;;;;;;8.15;5.30;;;0.90;99.90;;;;;;5080405;28;20234;-83
2021/12/12 05:23:03;;;;;;;7.78;5.95;;;0.80;99.90;;;;;;5080856;28;20287;-83
2021/12/12 05:25:36;;;;;;;7.03;5.55;;;0.90;99.90;;;;;;5082470;28;20283;-82
2021/12/12 05:28:05;;;;;;;7.60;5.15;;;0.80;99.90;;;;;;5082850;28;20658;-82
2021/12/12 05:30:35;;;;;;;6.57;4.80;;;0.80;99.90;;;;;;5082908;28;20285;-83
2021/12/12 05:33:03;;;;;;;5.18;4.55;;;1.10;99.90;;;;;;5082537;28;20662;-82
2021/12/12 05:35:34;;;;;;;8.90;5.80;;;0.90;99.90;;;;;;5079099;28;20208;-83
2021/12/12 05:38:04;;;;;;;7.60;5.55;;;0.80;99.90;;;;;;5082987;28;20289;-83
2021/12/12 05:40:34;;;;;;;10.80;6.28;;;1.50;99.90;;;;;;5086602;28;20243;-83
2021/12/12 05:43:03;;;;;;;5.70;4.53;;;0.70;99.90;;;;;;5082726;28;20657;-82
2021/12/12 05:45:33;;;;;;;7.90;4.97;;;0.30;99.90;;;;;;5078608;28;20953;-84
2021/12/12 05:48:01;;;;;;;7.90;5.30;;;0.80;99.90;;;;;;5080398;28;20237;-83
2021/12/12 05:50:29;;;;;;;7.30;5.05;;;0.80;99.90;;;;;;5083063;28;20228;-83
2021/12/12 05:52:56;;;;;;;5.90;5.05;;;0.80;99.90;;;;;;5077123;28;20330;-83
2021/12/12 05:55:27;;;;;;;6.70;5.30;;;0.90;99.90;;;;;;5077267;28;20204;-83
2021/12/12 05:57:56;;;;;;;4.32;3.88;;;0.80;99.90;;;;;;5081405;28;20222;-83
2021/12/12 06:00:26;;;;;;;5.68;4.35;;;0.80;99.90;;;;;;5077158;28;20207;-83
2021/12/12 06:02:53;;;;;;;5.25;4.40;;;0.80;99.90;;;;;;5081271;28;20242;-83
2021/12/12 06:05:21;;;;;;;4.70;4.00;;;;;;;;;;5079508;28;20222;-83
2021/12/12 06:07:48;;;;;;;8.07;5.03;;;;;;;;;;5081668;28;20211;-83
2021/12/12 06:10:17;;;;;;;7.90;4.60;;;0.70;99.90;;;;;;5081787;28;20207;-83
2021/12/12 06:12:47;;;;;;;5.18;4.78;;;0.70;99.90;;;;;;5079977;28;20295;-83
2021/12/12 06:15:17;;;;;;;5.30;4.18;;;0.60;99.90;;;;;;5076519;28;20612;-83
2021/12/12 06:17:47;;;;;;;8.07;4.55;;;-1.20;99.90;;;;;;5081960;28;20565;-83
2021/12/12 06:20:16;;;;;;;6.85;4.80;;;0.50;99.90;;;;;;5083073;28;20251;-83
2021/12/12 06:22:44;;;;;;;8.10;4.90;;;0.70;99.90;;;;;;5078734;28;20228;-83
2021/12/12 06:25:12;;;;;;;5.50;4.30;;;0.50;99.90;;;;;;5080434;28;20258;-82
2021/12/12 06:27:40;;;;;;;8.13;4.63;;;;;;;;;;5078910;28;20234;-84
2021/12/12 06:30:16;;;;;;;5.15;4.45;;;0.50;99.90;;;;;;5081388;28;20195;-84
2021/12/12 06:32:45;;;;;;;7.05;5.55;;;-1.60;99.90;;;;;;5080909;28;20274;-84
2021/12/12 06:35:13;;;;;;;8.35;4.63;;;0.50;99.90;;;;;;5078048;28;20290;-83
2021/12/12 06:37:42;;;;;;;4.40;4.00;;;0.50;99.90;;;;;;5081889;28;20248;-84
2021/12/12 06:40:12;;;;;;;6.35;4.88;;;0.40;99.90;;;;;;5081569;28;20223;-84
2021/12/12 06:42:39;;;;;;;6.63;5.30;;;;;;;;;;5081536;28;20239;-83
2021/12/12 06:45:10;;;;;;;6.38;4.65;;;0.50;99.90;;;;;;5078850;28;20204;-84
2021/12/12 06:47:39;;;;;;;7.13;4.57;;;;;;;;;;5076269;28;20231;-84
2021/12/12 06:50:09;;;;;;;6.20;4.50;;;0.40;99.90;;;;;;5081522;28;20241;-84
2021/12/12 06:52:38;;;;;;;6.10;4.80;;;0.30;99.90;;;;;;5077570;28;20684;-82
2021/12/12 06:55:07;;;;;;;6.30;4.55;;;0.30;99.90;;;;;;5084107;28;20289;-83
2021/12/12 06:57:35;;;;;;;5.68;4.88;;;;;;;;;;5082047;28;20214;-83
2021/12/12 07:00:04;;;;;;;6.78;5.38;;;0.40;99.90;;;;;;5081516;28;20298;-83
2021/12/12 07:02:32;;;;;;;7.80;5.40;;;;;;;;;;5081063;28;20273;-83
2021/12/12 07:05:00;;;;;;;7.43;5.45;;;;;;;;;;5083103;28;20355;-84
2021/12/12 07:07:28;;;;;;;6.60;5.28;;;0.30;99.90;;;;;;5079293;28;20268;-83
2021/12/12 07:09:56;;;;;;;6.78;5.78;;;;;;;;;;5082918;28;20284;-83
2021/12/12 07:12:23;;;;;;;6.05;5.10;;;;;;;;;;5080865;28;20219;-83
2021/12/12 07:14:52;;;;;;;5.43;4.93;;;0.10;99.90;;;;;;5075757;28;20206;-82
2021/12/12 07:17:20;;;;;;;8.23;5.47;;;0.30;99.90;;;;;;5079577;28;20234;-84
2021/12/12 07:19:47;;;;;;;8.00;5.95;;;;;;;;;;5078846;28;20235;-83
2021/12/12 07:22:16;;;;;;;8.05;6.90;;;;;;;;;;5077897;28;20263;-83
2021/12/12 07:24:44;;;;;;;7.22;5.88;;;0.30;99.90;;;;;;5076966;28;20261;-83
2021/12/12 07:27:14;;;;;;;11.88;6.57;;;0.30;99.90;;;;;;5079655;28;20261;-83
2021/12/12 07:29:41;;;;;;;5.72;4.90;;;;;;;;;;5080123;28;20195;-83
2021/12/12 07:32:09;;;;;;;10.68;7.30;;;;;;;;;;5069890;28;20196;-84
2021/12/12 07:34:36;;;;;;;7.40;6.00;;;;;;;;;;5082878;28;20237;-85
2021/12/12 07:37:08;;;;;;;7.88;5.40;;;0.60;99.90;;;;;;5084622;28;20256;-84
2021/12/12 07:39:39;;;;;;;5.70;5.15;;;;;;;;;;5079582;28;20292;-85
2021/12/12 07:42:08;;;;;;;8.25;5.82;;;0.80;99.90;;;;;;5079175;28;20789;-84
2021/12/12 07:44:40;;;;;;;8.10;5.28;;;0.80;99.90;;;;;;5077714;28;20208;-83
2021/12/12 07:47:09;;;;;;;6.10;5.50;;;0.80;99.90;;;;;;5083284;28;20316;-85
2021/12/12 07:49:39;;;;;;;6.13;5.38;;;0.80;99.90;;;;;;5075765;28;20199;-84
2021/12/12 07:52:09;;;;;;;8.00;5.15;;;0.90;99.90;;;;;;5079460;28;20230;-84
2021/12/12 07:54:38;;;;;;;8.25;6.68;;;;;;;;;;5079290;28;21125;-85
2021/12/12 07:57:06;;;;;;;7.78;5.38;;;0.90;99.90;;;;;;5077603;28;20211;-84
2021/12/12 07:59:35;;;;;;;6.70;5.05;;;1.10;99.90;;;;;;5079228;28;20253;-84
2021/12/12 08:02:03;;;;;;;6.68;5.80;;;;;;;;;;5072288;28;20228;-85
2021/12/12 08:04:31;;;;;;;8.32;6.07;;;1.30;99.90;;;;;;5077089;28;20214;-85
2021/12/12 08:07:00;;;;;;;6.45;4.65;;;;;;;;;;5078842;28;20286;-85
2021/12/12 08:09:28;;;;;;;6.32;4.88;;;1.40;99.90;;;;;;5078811;28;20230;-84
2021/12/12 08:11:57;;;;;;;6.15;4.85;;;1.70;99.90;;;;;;5073518;28;20231;-84
2021/12/12 08:14:27;;;;;;;5.78;4.93;;;1.70;99.90;;;;;;5079152;28;20204;-84
2021/12/12 08:16:55;;;;;;;5.18;4.68;;;1.90;99.90;;;;;;5066601;28;20293;-84
2021/12/12 08:19:25;;;;;;;6.03;5.07;;;2.00;99.90;;;;;;5081036;28;20195;-84
2021/12/12 08:21:55;;;;;;;6.60;4.88;;;2.00;99.90;;;;;;5076278;28;20754;-84
2021/12/12 08:24:23;;;;;;;5.80;3.55;;;;;;;;;;5073564;28;20249;-82
2021/12/12 08:26:50;;;;;;;7.40;4.47;;;2.20;99.90;;;;;;5076860;28;20211;-84
2021/12/12 08:29:19;;;;;;;4.82;4.38;;;;;;;;;;5083749;28;20208;-84
2021/12/12 08:31:47;;;;;;;5.50;4.45;;;2.30;99.90;;;;;;5073894;28;20282;-84
2021/12/12 08:34:14;;;;;;;3.17;2.88;;;2.30;99.90;;;;;;5079870;28;20622;-84
2021/12/12 08:36:44;;;;;;;4.80;3.47;;;2.30;99.90;;;;;;5074965;28;20309;-84
2021/12/12 08:39:13;;;;;;;4.18;3.30;;;2.40;99.90;;;;;;5079201;28;20208;-84
2021/12/12 08:41:45;;;;;;;5.97;4.13;;;2.40;99.90;;;;;;5070436;28;20713;-84
2021/12/12 08:44:13;;;;;;;4.03;3.50;;;2.30;99.90;;;;;;5079805;28;20651;-84
2021/12/12 08:46:47;;;;;;;5.25;4.03;;;2.40;99.90;;;;;;5073359;28;20201;-84
2021/12/12 08:49:18;;;;;;;3.05;2.38;;;2.70;99.90;;;;;;5073893;28;20242;-84
2021/12/12 08:51:54;;;;;;;3.83;3.08;;;2.40;99.90;;;;;;5080674;28;20222;-84
2021/12/12 08:54:26;;;;;;;3.92;3.53;;;2.30;99.90;;;;;;5080006;28;20669;-84
2021/12/12 08:57:02;;;;;;;4.32;3.92;;;2.30;99.90;;;;;;5081018;28;20262;-84
2021/12/12 08:59:31;;;;;;;4.00;3.60;;;2.30;99.90;;;;;;5082034;28;20265;-85
2021/12/12 09:02:03;;;;;;;4.60;3.67;;;2.30;99.90;;;;;;5083437;28;20308;-84
2021/12/12 09:04:33;;;;;;;4.13;3.33;;;2.30;99.90;;;;;;5074198;28;20271;-84
2021/12/12 09:07:06;;;;;;;5.45;4.10;;;2.50;99.90;;;;;;5079577;28;20227;-84
2021/12/12 09:09:40;;;;;;;5.25;4.75;;;2.30;99.90;;;;;;5079622;28;20259;-84
2021/12/12 09:12:12;;;;;;;4.47;3.53;;;2.30;99.90;;;;;;5072430;28;20308;-84
2021/12/12 09:14:45;;;;;;;4.30;3.60;;;2.30;99.90;;;;;;5081460;28;20207;-84
2021/12/12 09:17:17;;;;;;;5.43;3.85;;;2.40;99.90;;;;;;5079138;28;20203;-84
2021/12/12 09:19:49;;;;;;;3.33;3.03;;;2.40;99.90;;;;;;5075361;28;20285;-84
2021/12/12 09:22:19;;;;;;;4.68;2.78;;;2.50;99.90;;;;;;5079332;28;20307;-84
2021/12/12 09:24:54;;;;;;;4.80;3.40;;;2.60;99.90;;;;;;5081419;28;20247;-84
2021/12/12 09:27:28;;;;;;;3.78;3.30;;;2.60;99.90;;;;;;5078962;28;20207;-84
2021/12/12 09:29:59;;;;;;;5.57;2.60;;;2.60;99.90;;;;;;5082679;28;20211;-84
2021/12/12 09:32:34;;;;;;;4.65;3.60;;;2.70;99.90;;;;;;5079424;28;20634;-83
2021/12/12 09:35:07;;;;;;;3.03;2.40;;;2.60;99.90;;;;;;5085471;28;20288;-84
2021/12/12 09:37:40;;;;;;;3.63;3.33;;;2.60;99.90;;;;;;5077294;28;20196;-84
2021/12/12 09:40:23;;;;;;;4.63;3.75;;;2.70;99.90;;;;;;5078559;28;20232;-83
2021/12/12 09:42:55;;;;;;;3.45;2.95;;;;;;;;;;5085561;28;20260;-83
2021/12/12 09:45:37;;;;;;;2.60;2.40;;;;;;;;;;5076815;28;21041;-84
2021/12/12 09:51:39;;;;;;;3.50;3.05;;;2.90;99.20;;;;;;5080364;28;20249;-83
2021/12/12 09:54:26;;;;;;;3.53;3.22;;;2.90;99.10;;;;;;5077706;28;20213;-82
2021/12/12 09:56:59;;;;;;;4.80;3.40;;;2.80;98.90;;;;;;5078950;28;20250;-83
2021/12/12 09:59:32;;;;;;;2.72;2.40;;;;;;;;;;5079992;28;20205;-83
2021/12/12 10:02:08;;;;;;;4.93;2.83;;;3.20;98.90;;;;;;5077237;28;20295;-83
2021/12/12 10:04:49;;;;;;;3.45;2.75;;;3.20;98.50;;;;;;5075257;28;20200;-82
2021/12/12 10:07:34;;;;;;;3.03;2.53;;;3.30;98.30;;;;;;5078252;28;20237;-83
2021/12/12 10:10:07;;;;;;;2.88;2.55;;;3.60;98.20;;;;;;5077110;28;20240;-83
2021/12/12 10:12:39;;;;;;;2.33;2.13;;;3.40;98.50;;;;;;5077462;28;20229;-83
2021/12/12 10:15:12;;;;;;;2.53;2.25;;;3.40;97.90;;;;;;5081214;28;20236;-82
2021/12/12 10:17:44;;;;;;;3.30;2.38;;;3.40;99.90;;;;;;5077342;28;20201;-83
2021/12/12 10:20:14;;;;;;;2.58;2.38;;;3.50;98.00;;;;;;5082652;28;20279;-83
2021/12/12 10:22:59;;;;;;;5.85;4.30;;;3.60;98.10;;;;;;5080405;28;20276;-82
2021/12/12 10:25:31;;;;;;;3.55;3.25;;;3.60;97.60;;;;;;5076262;28;20615;-83
2021/12/12 10:28:02;;;;;;;3.20;2.80;;;3.60;96.80;;;;;;5082127;28;20201;-83
2021/12/12 10:30:32;;;;;;;2.58;2.38;;;3.60;99.90;;;;;;5082462;28;20206;-83
2021/12/12 10:33:10;;;;;;;2.88;2.67;;;3.70;97.30;;;;;;5086061;28;20201;-82
2021/12/12 10:35:42;;;;;;;4.82;3.30;;;3.80;97.80;;;;;;5078692;28;20239;-84
2021/12/12 10:38:16;;;;;;;3.22;2.92;;;4.10;97.30;;;;;;5077736;28;20207;-83
2021/12/12 10:40:48;;;;;;;5.20;2.85;;;3.80;96.80;;;;;;5077067;28;20269;-83
2021/12/12 10:43:22;;;;;;;5.38;3.38;;;3.90;96.50;;;;;;5077672;28;20234;-83
2021/12/12 10:45:55;;;;;;;2.22;2.03;;;4.00;96.80;;;;;;5077651;28;20595;-83
2021/12/12 10:48:33;;;;;;;2.67;2.42;;;4.10;96.90;;;;;;5081250;28;20619;-84
2021/12/12 10:51:05;;;;;;;3.30;3.00;;;4.10;96.40;;;;;;5078895;28;20266;-83
2021/12/12 10:53:40;;;;;;;2.75;2.55;;;4.10;99.90;;;;;;5080439;28;20954;-83
2021/12/12 10:56:23;;;;;;;3.28;2.95;;;4.00;97.20;;;;;;5079788;28;20292;-84
2021/12/12 10:58:53;;;;;;;3.75;2.70;;;4.20;97.10;;;;;;5078847;28;20558;-83
2021/12/12 11:01:24;;;;;;;3.30;3.00;;;4.60;96.60;;;;;;5077692;28;20252;-83
2021/12/12 11:03:54;;;;;;;3.22;2.50;;;3.80;99.90;;;;;;5079731;28;20232;-83
2021/12/12 11:06:26;;;;;;;3.30;3.00;;;4.20;96.00;;;;;;5081031;28;20235;-83
2021/12/12 11:08:59;;;;;;;3.28;2.95;;;4.30;99.90;;;;;;5078740;28;20222;-83
2021/12/12 11:11:30;;;;;;;5.45;3.28;;;4.70;99.90;;;;;;5079377;28;20207;-84
2021/12/12 11:14:07;;;;;;;2.65;2.33;;;4.50;95.80;;;;;;5079712;28;20301;-83
2021/12/12 11:16:39;;;;;;;2.40;2.20;;;4.60;95.10;;;;;;5080776;28;20266;-84
2021/12/12 11:19:13;;;;;;;2.72;2.53;;;6.50;96.90;;;;;;5079923;28;20222;-83
2021/12/12 11:21:45;;;;;;;5.70;3.15;;;4.70;95.70;;;;;;5076752;28;20230;-83
2021/12/12 11:24:22;;;;;;;2.92;2.60;;;4.80;95.20;;;;;;5080622;28;20241;-82
2021/12/12 11:26:55;;;;;;;3.75;2.65;;;4.80;94.90;;;;;;5078456;28;20235;-84
2021/12/12 11:29:28;;;;;;;3.45;3.15;;;4.70;96.20;;;;;;5081001;28;20664;-83
2021/12/12 11:31:59;;;;;;;7.00;3.10;;;4.80;96.00;;;;;;5068528;28;20610;-84
2021/12/12 11:34:28;;;;;;;2.28;2.08;;;4.90;95.60;;;;;;5079487;28;20231;-83
2021/12/12 11:37:07;;;;;;;3.30;2.30;;;4.90;95.60;;;;;;5081696;28;20202;-83
2021/12/12 11:39:46;;;;;;;1.92;1.83;;;4.90;95.50;;;;;;5078850;28;20231;-84
2021/12/12 11:42:21;;;;;;;3.10;2.17;;;4.90;95.60;;;;;;5076318;28;20257;-83
2021/12/12 11:44:56;;;;;;;6.55;2.88;;;4.90;99.90;;;;;;5078807;28;20701;-84
2021/12/12 11:47:37;;;;;;;3.03;2.72;;;5.00;94.90;;;;;;5079506;28;20226;-84
2021/12/12 11:50:12;;;;;;;3.90;3.03;;;5.00;95.40;;;;;;5082646;28;20238;-83
2021/12/12 11:52:46;;;;;;;2.50;2.30;;;5.00;94.40;;;;;;5083783;28;20259;-83
2021/12/12 11:55:25;;;;;;;2.90;2.70;;;5.00;94.40;;;;;;5081112;28;20202;-84
2021/12/12 11:57:56;;;;;;;3.42;3.13;;;5.00;94.10;;;;;;5083787;28;20294;-83
2021/12/12 12:00:29;;;;;;;2.10;1.90;;;5.00;94.40;;;;;;5074668;28;20212;-84
2021/12/12 12:03:13;;;;;;;2.33;2.10;;;5.10;93.60;;;;;;5077265;28;20250;-83
2021/12/12 12:05:48;;;;;;;4.13;2.67;;;5.10;93.70;;;;;;5074441;28;20265;-84
2021/12/12 12:08:22;;;;;;;2.92;2.67;;;5.10;94.10;;;;;;5077951;28;20621;-83
2021/12/12 12:11:06;;;;;;;2.63;2.38;;;5.10;98.40;;;;;;5077742;28;20249;-83
2021/12/12 12:13:47;;;;;;;2.88;2.47;;;5.10;99.90;;;;;;5078247;28;20754;-83
2021/12/12 12:16:25;;;;;;;3.72;2.00;;;5.10;93.10;;;;;;5080374;28;20253;-84
2021/12/12 12:19:04;;;;;;;3.60;2.50;;;5.20;93.00;;;;;;5079979;28;20226;-84
2021/12/12 12:21:39;;;;;;;2.58;2.33;;;5.20;92.90;;;;;;5078896;28;20256;-83
2021/12/12 12:24:13;;;;;;;2.50;2.30;;;5.10;93.60;;;;;;5081036;28;20647;-84
2021/12/12 12:26:55;;;;;;;4.63;2.30;;;5.20;92.30;;;;;;5076594;28;20205;-84
2021/12/12 12:30:07;;;;;;;2.33;2.00;;;5.20;96.00;;;;;;5081854;28;20203;-84
2021/12/12 12:33:04;;;;;;;4.85;2.28;;;5.30;93.60;;;;;;5074310;28;20203;-84
2021/12/12 12:36:32;;;;;;;3.13;2.80;;;5.40;99.90;;;;;;5083704;28;20219;-84
2021/12/12 12:39:36;;;;;;;7.00;2.70;;;5.30;93.20;;;;;;5078050;28;20627;-83
2021/12/12 12:42:42;;;;;;;2.70;2.50;;;5.10;92.40;;;;;;5079455;28;20275;-84
2021/12/12 12:46:00;;;;;;;3.03;2.35;;;5.30;93.00;;;;;;5083044;28;20722;-84
2021/12/12 12:49:03;;;;;;;4.13;3.25;;;5.30;93.40;;;;;;5024455;28;20216;-84
2021/12/12 12:51:53;;;;;;;3.38;2.72;;;5.40;93.10;;;;;;5014410;28;20228;-84
2021/12/12 12:54:31;;;;;;;2.00;1.90;;;5.40;92.80;;;;;;5073205;28;20299;-84
2021/12/12 12:57:27;;;;;;;3.75;3.28;;;4.70;92.70;;;;;;5079383;28;20245;-84
2021/12/12 13:00:11;;;;;;;2.40;2.20;;;5.20;93.60;;;;;;5080049;28;20613;-84
2021/12/12 13:03:12;;;;;;;2.65;2.20;;;5.50;96.60;;;;;;5078958;28;20204;-84
2021/12/12 13:06:23;;;;;;;2.60;2.40;;;5.20;93.60;;;;;;5082808;28;20231;-83
2021/12/12 13:09:15;;;;;;;3.70;2.38;;;5.40;93.60;;;;;;5083716;28;20257;-84
2021/12/12 13:12:07;;;;;;;2.50;2.28;;;5.30;92.90;;;;;;5079928;28;20625;-83
2021/12/12 13:14:52;;;;;;;4.65;1.88;;;5.50;96.80;;;;;;5082705;28;20223;-83
2021/12/12 13:17:31;;;;;;;3.15;2.22;;;5.50;92.60;;;;;;5081413;28;20343;-84
2021/12/12 13:20:11;;;;;;;4.22;2.83;;;5.30;92.70;;;;;;5083076;28;20611;-84
2021/12/12 13:22:48;;;;;;;2.30;1.80;;;5.50;92.30;;;;;;5080435;28;20199;-84
2021/12/12 13:25:21;;;;;;;2.40;2.20;;;5.40;92.40;;;;;;5082025;28;20317;-84
2021/12/12 13:28:06;;;;;;;2.05;1.85;;;5.40;92.70;;;;;;5081126;28;20290;-84
2021/12/12 13:30:43;;;;;;;3.88;2.33;;;5.40;93.20;;;;;;5078758;28;20700;-83
2021/12/12 13:33:24;;;;;;;3.10;2.10;;;5.40;92.70;;;;;;5082225;28;20215;-83
2021/12/12 13:36:20;;;;;;;2.53;2.33;;;5.40;93.20;;;;;;5084999;28;20252;-84
2021/12/12 13:39:05;;;;;;;3.22;2.92;;;5.40;93.20;;;;;;5071858;28;20644;-84
2021/12/12 13:41:48;;;;;;;2.30;2.10;;;5.30;99.90;;;;;;5080839;28;20650;-84
2021/12/12 13:44:30;;;;;;;2.67;2.03;;;5.30;93.10;;;;;;5082120;28;20241;-84
2021/12/12 13:47:12;;;;;;;7.75;2.95;;;5.30;93.50;;;;;;5070780;28;20207;-83
2021/12/12 13:49:48;;;;;;;3.03;2.40;;;5.30;92.70;;;;;;5078700;28;20233;-84
2021/12/12 13:52:26;;;;;;;2.50;2.30;;;5.30;93.30;;;;;;5081423;28;20763;-84
2021/12/12 13:55:02;;;;;;;4.35;2.40;;;5.30;93.10;;;;;;5080845;28;20203;-83
2021/12/12 13:57:37;;;;;;;2.63;2.42;;;5.20;92.50;;;;;;5080790;28;20289;-84